Аэропорт: Уфа. Уфа

ICAO: UWUU

METAR:
2019/05/26 14:00
UWUU 261400Z 14005MPS 110V180 CAVOK 21/04 Q1017 R14R/0///60 NOSIG
METAR:
2019/05/26 12:21
TAF TAF UWUU 261059Z 2612/2712 17005G10MPS 9999 BKN030 
      TEMPO 2612/2618 18008G14MPS 
      TEMPO 2618/2703 14003MPS BKN020 
      TEMPO 2703/2712 18008G17MPS 3100 -TSRAGR BKN011CB